Airfield :
LOGIN :

Register | Disclaimer

   EN    FR    IT 

 










Legend :    VFR   Marginal VFR   IFR   Intensive IFR   Very Intensive IFR
Visi :
Ceiling :
>= 8 km
>= 3000ft
5 to 8 km
1000 to 3000 ft
1500m to 5 km
500 to 1000 ft
800 to 1500m
200 to 500 ft
< 800m
< 200 ft
Symbols :   Thunderstorms  Fog  Heavy snow  Heavy precipitations  Wind > 20 kt
SIGMETs :     Misc.  Thunderstorms  Icing  Turbulence  Mountain Waves  Volcanic Ashes







- Airport Elevation : 1860 ft
- IATA code : GRX


LEGR - Granada

CURRENT METAR :
  • 252130Z AUTO VRB01KT 9999 NCD 24/09 Q1014

EXPIRED METARs :
  • 252100Z 17005KT 140V200 CAVOK 26/07 Q1014
  • 252030Z 16008KT CAVOK 26/08 Q1013
  • 251930Z 02004KT 340V060 9999 FEW100 29/06 Q1013
  • 251900Z 03006KT 360V060 9999 FEW100 30/06 Q1012

TAF TAF LEGR
Valid from the 25 at 21:00 until the 26 at 21:00 UTC


252000Z 2521/2621 VRB02KT 9999 FEW040 TX32/2615Z TN17/2605Z
BECMG 2611/2613 17012KT
TEMPO 2613/2619 FEW040CB
BECMG 2618/2620 VRB02KT
No reported NOTAMs for that airfield.
5 SIGMETs reported for the Madrid FIR (LECM) :
 
SIGMET 16 cancelation
LECM SIGMET 18 VALID 252120/252200 LEVA
LECM MADRID FIR/UIR CNL SIGMET 16 VALID 252000/252200=
SIGMET 14 cancelation
LECM SIGMET 17 VALID 252029/252200 LEVA
LECM MADRID FIR/UIR CNL SIGMET 14 VALID 252000/252200=
Embedded thunderstorms
LECM SIGMET 16 VALID 252000/252200 LEVA
LECM MADRID FIR/UIR EMBD TS OBS AT 1946Z WI N40 W004 - N3820 W00440 - N3810 W00320 - N40 W003 TOP FL300 STNR NC=
Embedded thunderstorms
LECM SIGMET 15 VALID 252000/252200 LEVA
LECM MADRID FIR/UIR EMBD TS OBS AT 1945Z WI N4320 W00440 - N42 W00450 - N4150 W00240 - N4320 W00230 TOP FL300 STNR NC=
SIGMET 14  CANCELED :
Embedded thunderstorms
LECM SIGMET 14 VALID 252000/252200 LEVA
LECM MADRID FIR/UIR EMBD TS OBS AT 1943Z N OF LINE N4350 W01010 - N4350 W00820 TOP FL300 STNR WKN=



MET'MAP, your aeronautical weather chart ! - Copyright ORBIFLY December 2007 - Disclaimer

ORBIFLY MET'MAP TEAM :

Programming & Development : Alexandra Zaïnal
Concept & Development : Baudouin d'Aumeries
Co-Development & Prog : Marc-Olivier Méhu
Technical & hardware support : Manuel Goepfert

Contact : metmap@orbifly.com




SOURCES & CREDITS :

   NOAA